Terminal Aerodrome Forecast
Issued by NWS Twin Cities, MN

Home | Current Version | Previous Version | Text Only | Print | Product List | Glossary On
Versions: 1 2 3 4 5 6 7 8 9 10 11 12 13 14 15 16 17 18 19
000
FTUS43 KMPX 261736
TAFEAU
TAF
KEAU 261736Z 2618/2718 24005KT P6SM -RA BKN010
     FM261930 28007KT P6SM SCT030 SCT035 BKN100
     FM270000 02003KT P6SM FEW050
     FM270400 VRB02KT 5SM BR SCT010
      TEMPO 2706/2710 1SM BR BKN007
     FM271300 03004KT P6SM SCT040=

USA.gov is the U.S. government's official web portal to all federal, state and local government web resources and services.